Terminal Aerodrome Forecast
Issued by NWS

Home | Current Version | Previous Version | Graphics & Text | Print | Product List | Glossary On
Versions: 1 2 3 4 5 6 7 8 9 10 11 12 13
283
FTUS43 KUNR 252320
TAFGCC
TAF
KGCC 252320Z 2600/2624 01007KT P6SM SCT060 OVC100
      TEMPO 2601/2605 -SHRA BKN060
     FM260600 11005KT P6SM BKN110
     FM260900 17008KT P6SM BKN150=

USA.gov is the U.S. government's official web portal to all federal, state and local government web resources and services.